Terminal Aerodrome Forecast
Issued by NWS Sioux Falls, SD

Home | Current Version | Previous Version | Text Only | Print | Product List | Glossary On
Versions: 1 2 3 4 5 6 7 8 9 10 11 12 13 14 15 16 17
000
FTUS43 KFSD 192328
TAFFSD
TAF
KFSD 192328Z 2000/2024 28007KT P6SM BKN120
     FM201500 32010KT P6SM SKC
     FM202000 32015G23KT P6SM FEW050=

USA.gov is the U.S. government's official web portal to all federal, state and local government web resources and services.